createdAt,value
2022-09-01T00:02:43.141Z,100.00
2022-09-01T00:05:34.088Z,100.00
2022-09-01T00:08:23.274Z,100.00
2022-09-01T00:11:12.101Z,100.00
2022-09-01T00:14:02.492Z,100.00
2022-09-01T00:16:51.839Z,100.00
2022-09-01T00:19:40.595Z,100.00
2022-09-01T00:22:30.492Z,100.00
2022-09-01T00:25:20.036Z,100.00
2022-09-01T00:28:08.662Z,100.00
2022-09-01T00:30:58.249Z,100.00
2022-09-01T00:33:48.034Z,100.00
2022-09-01T00:36:36.684Z,100.00
2022-09-01T00:39:26.645Z,100.00
2022-09-01T00:42:15.265Z,100.00
2022-09-01T00:45:03.847Z,100.00
2022-09-01T00:47:52.479Z,100.00
2022-09-01T00:50:41.877Z,100.00
2022-09-01T00:53:30.759Z,100.00
2022-09-01T00:56:20.723Z,100.00
2022-09-01T00:59:09.994Z,100.00
2022-09-01T01:01:59.367Z,100.00
2022-09-01T01:04:47.895Z,100.00
2022-09-01T01:07:39.085Z,100.00
2022-09-01T01:10:28.999Z,100.00
2022-09-01T01:13:19.107Z,100.00
2022-09-01T01:16:08.215Z,100.00
2022-09-01T01:18:56.821Z,100.00
2022-09-01T01:22:03.968Z,100.00
2022-09-01T01:24:55.691Z,100.00
2022-09-01T01:27:44.238Z,100.00
2022-09-01T01:30:36.924Z,100.00
2022-09-01T01:33:28.912Z,100.00
2022-09-01T01:36:19.824Z,100.00
2022-09-01T01:39:10.777Z,100.00
2022-09-01T01:42:00.682Z,100.00
2022-09-01T01:44:49.880Z,100.00
2022-09-01T01:47:38.470Z,100.00
2022-09-01T01:50:29.855Z,100.00
2022-09-01T01:53:19.111Z,100.00
2022-09-01T01:56:10.776Z,100.00
2022-09-01T01:59:01.948Z,100.00
2022-09-01T02:01:51.424Z,100.00
2022-09-01T02:04:40.807Z,100.00
2022-09-01T02:07:30.254Z,100.00
2022-09-01T02:10:23.956Z,100.00
2022-09-01T02:13:16.434Z,100.00
2022-09-01T02:16:12.029Z,100.00
2022-09-01T02:19:01.774Z,100.00
2022-09-01T02:21:56.024Z,100.00
2022-09-01T02:24:49.121Z,100.00
2022-09-01T02:27:39.970Z,100.00
2022-09-01T02:30:29.317Z,100.00
2022-09-01T02:33:20.048Z,100.00
2022-09-01T02:36:12.698Z,100.00
2022-09-01T02:39:01.248Z,100.00
2022-09-01T02:41:50.007Z,100.00
2022-09-01T02:44:41.438Z,100.00
2022-09-01T02:47:30.056Z,100.00
2022-09-01T02:50:21.615Z,100.00
2022-09-01T02:53:12.763Z,100.00
2022-09-01T02:56:02.428Z,100.00
2022-09-01T02:58:51.559Z,100.00
2022-09-01T03:01:40.503Z,100.00
2022-09-01T03:04:35.327Z,100.00
2022-09-01T03:07:26.974Z,100.00
2022-09-01T03:10:16.403Z,100.00
2022-09-01T03:13:06.590Z,100.00
2022-09-01T03:15:55.142Z,100.00
2022-09-01T03:18:43.848Z,100.00
2022-09-01T03:21:32.889Z,100.00
2022-09-01T03:24:23.095Z,100.00
2022-09-01T03:27:11.767Z,100.00
2022-09-01T03:30:00.267Z,100.00
2022-09-01T03:32:49.827Z,100.00
2022-09-01T03:35:38.438Z,100.00
2022-09-01T03:38:27.156Z,100.00
2022-09-01T03:41:18.514Z,100.00
2022-09-01T03:44:07.049Z,100.00
2022-09-01T03:46:56.275Z,100.00
2022-09-01T03:49:45.426Z,100.00
2022-09-01T03:52:34.184Z,100.00
2022-09-01T03:55:27.293Z,100.00
2022-09-01T03:58:20.455Z,100.00
2022-09-01T04:01:10.866Z,100.00
2022-09-01T04:04:02.498Z,100.00
2022-09-01T04:06:51.017Z,100.00
2022-09-01T04:09:39.878Z,100.00
2022-09-01T04:12:29.459Z,100.00
2022-09-01T04:15:19.870Z,100.00
2022-09-01T04:18:10.702Z,100.00
2022-09-01T04:21:00.640Z,100.00
2022-09-01T04:23:49.148Z,100.00
2022-09-01T04:26:38.383Z,100.00
2022-09-01T04:29:28.174Z,100.00
2022-09-01T04:32:21.565Z,100.00
2022-09-01T04:35:11.559Z,100.00
2022-09-01T04:38:00.546Z,100.00
2022-09-01T04:40:50.403Z,100.00
2022-09-01T04:43:39.920Z,100.00
2022-09-01T04:46:31.194Z,100.00
2022-09-01T04:49:22.574Z,100.00
2022-09-01T04:52:11.099Z,100.00
2022-09-01T04:55:03.231Z,100.00
2022-09-01T04:57:52.315Z,100.00
2022-09-01T05:00:41.633Z,100.00
2022-09-01T05:03:32.079Z,100.00
2022-09-01T05:06:21.969Z,100.00
2022-09-01T05:09:12.133Z,100.00
2022-09-01T05:12:10.937Z,100.00
2022-09-01T05:15:06.280Z,100.00
2022-09-01T05:17:55.491Z,100.00
2022-09-01T05:20:44.536Z,100.00
2022-09-01T05:23:36.427Z,100.00
2022-09-01T05:26:27.628Z,100.00
2022-09-01T05:29:17.859Z,100.00
2022-09-01T05:32:09.991Z,100.00
2022-09-01T05:34:58.936Z,100.00
2022-09-01T05:37:51.735Z,100.00
2022-09-01T05:40:42.580Z,100.00
2022-09-01T05:43:32.454Z,100.00
2022-09-01T05:46:23.565Z,100.00
2022-09-01T05:49:13.987Z,100.00
2022-09-01T05:52:03.064Z,100.00
2022-09-01T05:54:53.690Z,100.00
2022-09-01T05:57:48.010Z,100.00
2022-09-01T06:00:38.534Z,100.00
2022-09-01T06:03:27.885Z,100.00
2022-09-01T06:06:16.593Z,100.00
2022-09-01T06:09:07.605Z,100.00
2022-09-01T06:11:56.999Z,100.00
2022-09-01T06:14:48.311Z,100.00
2022-09-01T06:17:37.008Z,100.00
2022-09-01T06:20:26.382Z,100.00
2022-09-01T06:23:17.735Z,100.00
2022-09-01T06:26:07.024Z,100.00
2022-09-01T06:28:56.547Z,100.00
2022-09-01T06:31:51.762Z,100.00
2022-09-01T06:34:43.509Z,100.00
2022-09-01T06:37:35.060Z,100.00
2022-09-01T06:40:25.436Z,100.00
2022-09-01T06:43:17.257Z,100.00
2022-09-01T06:46:06.100Z,100.00
2022-09-01T06:48:59.052Z,100.00
2022-09-01T06:51:51.679Z,100.00
2022-09-01T06:54:43.721Z,100.00
2022-09-01T07:00:41.927Z,97.67
2022-09-01T07:03:32.076Z,96.93
2022-09-01T07:09:38.982Z,94.79
2022-09-01T07:12:36.126Z,97.02
2022-09-01T07:18:34.138Z,95.61
2022-09-01T07:21:42.162Z,93.00
2022-09-01T07:24:35.793Z,91.86
2022-09-01T07:27:35.645Z,92.33
2022-09-01T07:30:25.053Z,91.76
2022-09-01T07:39:48.462Z,85.71
2022-09-01T07:42:56.885Z,88.91
2022-09-01T07:49:28.407Z,84.30
2022-09-01T07:52:09.425Z,84.05
2022-09-01T07:54:58.132Z,83.05
2022-09-01T07:57:46.784Z,81.74
2022-09-01T08:00:35.350Z,81.95
2022-09-01T08:03:25.881Z,83.13
2022-09-01T08:06:19.403Z,80.93
2022-09-01T08:09:11.726Z,78.34
2022-09-01T08:12:02.905Z,77.91
2022-09-01T08:15:12.676Z,77.31
2022-09-01T08:18:01.546Z,78.94
2022-09-01T08:20:50.109Z,75.09
2022-09-01T08:23:38.785Z,74.09
2022-09-01T08:26:28.768Z,73.86
2022-09-01T08:29:17.341Z,72.50
2022-09-01T08:32:06.115Z,71.98
2022-09-01T08:34:54.766Z,72.06
2022-09-01T08:37:44.136Z,72.75
2022-09-01T08:40:32.725Z,74.10
2022-09-01T08:43:30.972Z,74.58
2022-09-01T08:46:25.575Z,74.33
2022-09-01T08:49:43.002Z,73.42
2022-09-01T08:52:29.579Z,73.23
2022-09-01T08:55:24.064Z,70.66
2022-09-01T08:58:15.029Z,70.63
2022-09-01T09:01:11.652Z,71.61
2022-09-01T09:04:15.089Z,70.50
2022-09-01T09:07:08.458Z,73.69
2022-09-01T09:10:00.523Z,72.63
2022-09-01T09:12:59.580Z,70.24
2022-09-01T09:15:52.789Z,69.96
2022-09-01T09:19:01.329Z,71.95
2022-09-01T09:21:52.097Z,70.96
2022-09-01T09:24:50.124Z,68.57
2022-09-01T09:27:40.613Z,67.01
2022-09-01T09:30:31.387Z,66.34
2022-09-01T09:33:51.212Z,65.17
2022-09-01T09:36:42.505Z,64.92
2022-09-01T09:39:31.364Z,66.76
2022-09-01T09:42:20.084Z,66.75
2022-09-01T09:45:23.761Z,65.95
2022-09-01T09:48:29.149Z,65.78
2022-09-01T09:51:19.248Z,68.72
2022-09-01T09:54:19.758Z,69.52
2022-09-01T09:57:13.362Z,70.19
2022-09-01T10:00:12.128Z,69.27
2022-09-01T10:03:04.629Z,65.35
2022-09-01T10:05:58.612Z,62.68
2022-09-01T10:08:48.005Z,63.74
2022-09-01T10:11:41.671Z,62.36
2022-09-01T10:14:52.408Z,62.98
2022-09-01T10:17:44.212Z,62.74
2022-09-01T10:20:34.478Z,63.08
2022-09-01T10:23:27.187Z,61.89
2022-09-01T10:26:18.796Z,60.16
2022-09-01T10:29:15.835Z,61.80
2022-09-01T10:32:31.536Z,61.72
2022-09-01T10:35:19.887Z,61.52
2022-09-01T10:38:18.176Z,60.67
2022-09-01T10:41:14.994Z,60.95
2022-09-01T10:44:11.665Z,61.76
2022-09-01T10:47:06.190Z,62.14
2022-09-01T10:50:07.695Z,59.76
2022-09-01T10:53:07.339Z,61.08
2022-09-01T10:56:04.904Z,60.61
2022-09-01T11:02:23.847Z,57.98
2022-09-01T11:05:19.052Z,58.16
2022-09-01T11:08:23.723Z,58.44
2022-09-01T11:11:23.880Z,57.93
2022-09-01T11:14:20.336Z,56.75
2022-09-01T11:17:16.967Z,57.45
2022-09-01T11:20:10.192Z,57.29
2022-09-01T11:23:04.734Z,58.49
2022-09-01T11:29:07.030Z,59.59
2022-09-01T11:31:57.248Z,57.36
2022-09-01T11:34:47.174Z,58.54
2022-09-01T11:37:35.840Z,58.11
2022-09-01T11:40:29.642Z,57.88
2022-09-01T11:43:21.550Z,57.63
2022-09-01T11:46:15.856Z,58.70
2022-09-01T11:49:09.067Z,57.73
2022-09-01T11:51:58.311Z,58.69
2022-09-01T11:54:47.453Z,58.36
2022-09-01T11:57:37.274Z,58.80
2022-09-01T12:00:32.690Z,58.88
2022-09-01T12:03:23.690Z,58.05
2022-09-01T12:06:21.011Z,56.31
2022-09-01T12:09:09.795Z,55.20
2022-09-01T12:11:58.579Z,51.67
2022-09-01T12:15:05.654Z,53.79
2022-09-01T12:17:55.241Z,54.55
2022-09-01T12:20:44.143Z,54.54
2022-09-01T12:23:36.603Z,52.76
2022-09-01T12:26:28.345Z,51.66
2022-09-01T12:29:17.661Z,51.19
2022-09-01T12:32:06.600Z,50.87
2022-09-01T12:35:05.633Z,48.84
2022-09-01T12:38:25.793Z,49.67
2022-09-01T12:41:38.966Z,48.30
2022-09-01T12:44:31.947Z,47.84
2022-09-01T12:47:50.421Z,48.57
2022-09-01T12:50:48.203Z,48.07
2022-09-01T12:53:37.129Z,47.49
2022-09-01T12:56:31.029Z,47.25
2022-09-01T12:59:26.280Z,47.60
2022-09-01T13:02:30.531Z,48.15
2022-09-01T13:05:31.900Z,47.48
2022-09-01T13:08:26.912Z,46.70
2022-09-01T13:11:20.193Z,46.43
2022-09-01T13:14:09.400Z,47.54
2022-09-01T13:16:59.462Z,47.57
2022-09-01T13:19:47.966Z,46.13
2022-09-01T13:22:37.311Z,46.85
2022-09-01T13:25:26.190Z,47.92
2022-09-01T13:28:16.729Z,48.38
2022-09-01T13:34:16.958Z,48.75
2022-09-01T13:37:11.239Z,47.84
2022-09-01T13:39:59.739Z,48.83
2022-09-01T13:42:49.905Z,49.81
2022-09-01T13:45:40.829Z,48.54
2022-09-01T13:49:02.471Z,49.16
2022-09-01T13:51:40.449Z,48.87
2022-09-01T13:54:29.019Z,49.06
2022-09-01T13:57:17.863Z,49.30
2022-09-01T14:00:10.646Z,49.14
2022-09-01T14:03:03.218Z,48.71
2022-09-01T14:05:52.164Z,48.06
2022-09-01T14:08:42.309Z,47.88
2022-09-01T14:11:31.967Z,46.47
2022-09-01T14:14:20.542Z,46.75
2022-09-01T14:17:09.277Z,46.03
2022-09-01T14:19:58.287Z,46.24
2022-09-01T14:22:47.203Z,46.30
2022-09-01T14:25:37.777Z,47.28
2022-09-01T14:28:26.385Z,46.87
2022-09-01T14:31:18.855Z,46.15
2022-09-01T14:34:07.410Z,46.24
2022-09-01T14:36:58.027Z,46.06
2022-09-01T14:39:50.474Z,44.79
2022-09-01T14:42:40.390Z,46.41
2022-09-01T14:45:29.634Z,45.87
2022-09-01T14:48:20.612Z,46.30
2022-09-01T14:51:10.491Z,45.99
2022-09-01T14:53:59.447Z,47.22
2022-09-01T14:59:58.175Z,47.89
2022-09-01T15:02:47.500Z,48.59
2022-09-01T15:05:39.793Z,49.31
2022-09-01T15:08:28.904Z,50.52
2022-09-01T15:11:20.053Z,50.55
2022-09-01T15:14:09.336Z,51.04
2022-09-01T15:17:01.140Z,51.29
2022-09-01T15:19:49.705Z,51.26
2022-09-01T15:22:38.257Z,51.20
2022-09-01T15:25:26.845Z,50.64
2022-09-01T15:28:15.676Z,49.51
2022-09-01T15:31:04.202Z,50.23
2022-09-01T15:33:56.285Z,49.24
2022-09-01T15:36:45.418Z,48.96
2022-09-01T15:39:37.688Z,47.92
2022-09-01T15:42:26.989Z,47.54
2022-09-01T15:45:17.546Z,47.52
2022-09-01T15:48:06.335Z,47.92
2022-09-01T15:51:03.134Z,48.35
2022-09-01T15:53:52.933Z,48.50
2022-09-01T15:56:42.890Z,48.35
2022-09-01T15:59:32.488Z,48.82
2022-09-01T16:02:27.627Z,48.66
2022-09-01T16:05:17.787Z,49.28
2022-09-01T16:08:09.316Z,49.59
2022-09-01T16:10:57.828Z,49.76
2022-09-01T16:13:46.483Z,49.62
2022-09-01T16:16:42.119Z,50.02
2022-09-01T16:19:35.513Z,48.93
2022-09-01T16:22:28.139Z,49.12
2022-09-01T16:25:25.173Z,49.57
2022-09-01T16:28:25.546Z,49.92
2022-09-01T16:31:17.811Z,49.59
2022-09-01T16:34:13.955Z,49.77
2022-09-01T16:37:06.123Z,49.48
2022-09-01T16:39:58.608Z,49.56
2022-09-01T16:42:54.481Z,49.12
2022-09-01T16:45:52.571Z,48.46
2022-09-01T16:48:47.105Z,48.52
2022-09-01T16:51:39.189Z,49.20
2022-09-01T16:54:37.957Z,49.06
2022-09-01T16:57:33.653Z,49.32
2022-09-01T17:00:24.336Z,50.05
2022-09-01T17:03:17.982Z,50.85
2022-09-01T17:06:13.886Z,51.90
2022-09-01T17:09:11.198Z,51.95
2022-09-01T17:12:15.503Z,52.64
2022-09-01T17:15:10.186Z,52.93
2022-09-01T17:18:22.630Z,52.81
2022-09-01T17:21:15.361Z,53.46
2022-09-01T17:24:12.404Z,53.72
2022-09-01T17:27:07.544Z,53.67
2022-09-01T17:29:57.973Z,54.24
2022-09-01T17:33:17.448Z,54.30
2022-09-01T17:36:17.898Z,54.74
2022-09-01T17:39:14.167Z,54.64
2022-09-01T17:42:07.327Z,54.58
2022-09-01T17:44:57.510Z,55.20
2022-09-01T17:47:54.480Z,55.40
2022-09-01T17:50:54.902Z,55.34
2022-09-01T17:53:54.332Z,54.37
2022-09-01T17:56:51.437Z,54.52
2022-09-01T17:59:46.020Z,55.11
2022-09-01T18:02:58.509Z,55.58
2022-09-01T18:05:49.598Z,55.83
2022-09-01T18:08:41.946Z,55.93
2022-09-01T18:11:41.698Z,56.09
2022-09-01T18:14:35.124Z,56.49
2022-09-01T18:17:28.267Z,57.42
2022-09-01T18:20:19.642Z,58.13
2022-09-01T18:23:10.678Z,58.30
2022-09-01T18:25:47.459Z,58.68
2022-09-01T18:28:17.500Z,58.66
2022-09-01T18:30:53.135Z,59.37
2022-09-01T18:33:28.733Z,59.97
2022-09-01T18:36:15.744Z,60.48
2022-09-01T18:38:46.630Z,61.11
2022-09-01T18:41:31.895Z,61.66
2022-09-01T18:44:06.483Z,62.03
2022-09-01T18:46:41.553Z,62.37
2022-09-01T18:49:15.760Z,62.42
2022-09-01T18:51:55.848Z,63.05
2022-09-01T18:54:30.495Z,64.03
2022-09-01T18:57:21.095Z,65.30
2022-09-01T19:00:17.835Z,65.97
2022-09-01T19:03:14.914Z,66.05
2022-09-01T19:06:15.376Z,66.43
2022-09-01T19:09:15.434Z,66.54
2022-09-01T19:12:14.179Z,66.91
2022-09-01T19:15:08.721Z,67.40
2022-09-01T19:18:19.789Z,68.02
2022-09-01T19:21:13.847Z,67.61
2022-09-01T19:24:04.797Z,67.38
2022-09-01T19:26:59.251Z,67.52
2022-09-01T19:29:52.391Z,67.92
2022-09-01T19:32:42.000Z,68.14
2022-09-01T19:35:35.526Z,68.50
2022-09-01T19:38:28.958Z,68.41
2022-09-01T19:41:23.464Z,68.70
2022-09-01T19:44:16.230Z,68.38
2022-09-01T19:47:11.227Z,68.77
2022-09-01T19:50:03.596Z,68.73
2022-09-01T19:52:56.838Z,69.02
2022-09-01T19:55:49.398Z,68.89
2022-09-01T19:58:46.529Z,69.44
2022-09-01T20:01:40.701Z,69.24
2022-09-01T20:04:38.295Z,69.56
2022-09-01T20:07:31.680Z,69.88
2022-09-01T20:10:40.060Z,70.08
2022-09-01T20:13:39.554Z,70.52
2022-09-01T20:16:31.754Z,70.74
2022-09-01T20:19:27.297Z,71.06
2022-09-01T20:22:22.527Z,70.82
2022-09-01T20:25:14.363Z,71.01
2022-09-01T20:28:06.431Z,70.99
2022-09-01T20:30:58.436Z,72.28
2022-09-01T20:33:51.965Z,72.49
2022-09-01T20:36:44.942Z,72.51
2022-09-01T20:39:56.891Z,72.55
2022-09-01T20:43:03.742Z,73.63
2022-09-01T20:45:53.921Z,74.10
2022-09-01T20:48:43.329Z,74.91
2022-09-01T20:51:38.300Z,75.99
2022-09-01T20:54:33.041Z,75.70
2022-09-01T20:57:28.900Z,76.17
2022-09-01T21:00:21.712Z,75.80
2022-09-01T21:03:17.065Z,76.76
2022-09-01T21:06:10.413Z,76.22
2022-09-01T21:09:03.659Z,76.57
2022-09-01T21:11:56.393Z,76.53
2022-09-01T21:14:54.905Z,76.72
2022-09-01T21:17:51.837Z,77.44
2022-09-01T21:20:50.629Z,77.77
2022-09-01T21:23:39.170Z,78.56
2022-09-01T21:26:27.764Z,78.34
2022-09-01T21:29:28.784Z,77.62
2022-09-01T21:32:17.447Z,75.99
2022-09-01T21:35:08.098Z,75.40
2022-09-01T21:37:58.091Z,75.10
2022-09-01T21:40:47.061Z,74.60
2022-09-01T21:43:37.501Z,75.40
2022-09-01T21:46:26.522Z,74.73
2022-09-01T21:49:15.139Z,76.61
2022-09-01T21:52:04.270Z,78.21
2022-09-01T21:54:54.237Z,78.77
2022-09-01T21:57:43.323Z,77.22
2022-09-01T22:00:33.464Z,77.31
2022-09-01T22:03:22.103Z,77.98
2022-09-01T22:06:12.669Z,79.03
2022-09-01T22:09:01.456Z,78.71
2022-09-01T22:11:52.522Z,77.78
2022-09-01T22:14:41.046Z,76.63
2022-09-01T22:17:31.475Z,75.98
2022-09-01T22:20:22.545Z,75.33
2022-09-01T22:23:11.747Z,75.24
2022-09-01T22:26:00.295Z,74.69
2022-09-01T22:28:50.355Z,74.99
2022-09-01T22:31:40.299Z,74.44
2022-09-01T22:34:28.842Z,74.29
2022-09-01T22:37:18.754Z,74.30
2022-09-01T22:40:08.860Z,74.30
2022-09-01T22:42:57.516Z,74.41
2022-09-01T22:45:47.950Z,74.95
2022-09-01T22:48:36.717Z,74.96
2022-09-01T22:51:26.565Z,74.85
2022-09-01T22:54:15.189Z,74.73
2022-09-01T22:57:03.864Z,75.34
2022-09-01T22:59:52.411Z,75.53
2022-09-01T23:02:42.344Z,75.78
2022-09-01T23:05:31.728Z,76.05
2022-09-01T23:08:20.268Z,76.16
2022-09-01T23:11:09.496Z,76.63
2022-09-01T23:13:58.172Z,77.05
2022-09-01T23:16:47.111Z,77.06
2022-09-01T23:19:41.296Z,77.53
2022-09-01T23:22:29.890Z,77.37
2022-09-01T23:25:18.568Z,77.30
2022-09-01T23:28:09.898Z,77.12
2022-09-01T23:30:58.501Z,77.53
2022-09-01T23:33:48.801Z,77.86
2022-09-01T23:36:38.738Z,78.75
2022-09-01T23:39:27.404Z,79.19
2022-09-01T23:42:15.927Z,79.86
2022-09-01T23:45:04.978Z,80.45
2022-09-01T23:47:53.484Z,80.99
2022-09-01T23:50:43.847Z,81.79
2022-09-01T23:53:35.234Z,82.71
2022-09-01T23:56:26.104Z,83.37
2022-09-01T23:59:14.701Z,84.18
